createdAt,value
2023-02-14T00:00:23.938Z,99.90
2023-02-14T00:05:25.650Z,99.90
2023-02-14T00:10:27.329Z,99.90
2023-02-14T00:15:29.014Z,99.90
2023-02-14T00:20:30.705Z,99.90
2023-02-14T00:25:34.619Z,99.90
2023-02-14T00:30:36.427Z,99.90
2023-02-14T00:35:38.746Z,99.90
2023-02-14T00:40:40.396Z,99.90
2023-02-14T00:45:42.104Z,99.90
2023-02-14T00:50:45.781Z,99.90
2023-02-14T00:55:47.536Z,99.90
2023-02-14T01:00:49.334Z,99.90
2023-02-14T01:05:51.199Z,99.90
2023-02-14T01:10:53.421Z,99.90
2023-02-14T01:15:55.159Z,99.90
2023-02-14T01:20:56.939Z,99.90
2023-02-14T01:25:58.735Z,99.90
2023-02-14T01:31:09.214Z,99.90
2023-02-14T01:36:24.581Z,99.90
2023-02-14T01:41:32.174Z,99.90
2023-02-14T01:46:36.686Z,99.90
2023-02-14T01:51:44.588Z,99.90
2023-02-14T01:56:50.059Z,99.90
2023-02-14T02:01:53.407Z,99.90
2023-02-14T02:07:10.146Z,99.90
2023-02-14T02:12:12.533Z,99.90
2023-02-14T02:17:22.779Z,99.90
2023-02-14T02:22:49.326Z,99.90
2023-02-14T02:28:13.938Z,99.90
2023-02-14T02:33:54.212Z,99.90
2023-02-14T02:39:18.399Z,99.90
2023-02-14T02:44:44.884Z,99.90
2023-02-14T02:50:14.094Z,99.90
2023-02-14T02:55:50.831Z,99.90
2023-02-14T03:00:54.522Z,99.90
2023-02-14T03:05:57.759Z,99.90
2023-02-14T03:11:02.186Z,99.90
2023-02-14T03:16:21.320Z,99.90
2023-02-14T03:21:31.104Z,99.90
2023-02-14T03:26:51.479Z,99.90
2023-02-14T03:32:15.570Z,99.90
2023-02-14T03:37:29.776Z,99.90
2023-02-14T03:42:38.516Z,99.90
2023-02-14T03:47:43.261Z,99.90
2023-02-14T03:52:48.268Z,99.90
2023-02-14T03:57:57.756Z,99.90
2023-02-14T04:03:06.034Z,99.90
2023-02-14T04:08:08.233Z,99.90
2023-02-14T04:13:10.199Z,99.90
2023-02-14T04:18:30.773Z,99.90
2023-02-14T04:23:32.476Z,99.90
2023-02-14T04:28:34.664Z,99.90
2023-02-14T04:33:36.344Z,99.90
2023-02-14T04:38:38.008Z,99.90
2023-02-14T04:43:39.703Z,99.90
2023-02-14T04:48:41.368Z,99.90
2023-02-14T04:53:43.917Z,99.90
2023-02-14T04:58:45.572Z,99.90
2023-02-14T05:03:47.242Z,99.90
2023-02-14T05:08:48.901Z,99.90
2023-02-14T05:13:50.930Z,99.90
2023-02-14T05:18:52.643Z,99.90
2023-02-14T05:23:54.343Z,99.90
2023-02-14T05:28:56.648Z,99.90
2023-02-14T05:33:58.373Z,99.90
2023-02-14T05:39:00.087Z,99.90
2023-02-14T05:44:01.956Z,99.90
2023-02-14T05:49:04.053Z,99.90
2023-02-14T05:54:05.815Z,99.90
2023-02-14T05:59:07.476Z,99.90
2023-02-14T06:04:09.178Z,99.90
2023-02-14T06:09:10.936Z,99.90
2023-02-14T06:14:12.671Z,99.90
2023-02-14T06:19:14.355Z,99.90
2023-02-14T06:24:16.098Z,99.90
2023-02-14T06:29:18.197Z,99.90
2023-02-14T06:34:19.981Z,99.90
2023-02-14T06:39:21.774Z,99.90
2023-02-14T06:44:23.415Z,99.90
2023-02-14T06:49:25.173Z,99.90
2023-02-14T06:54:26.833Z,99.90
2023-02-14T06:59:28.539Z,99.90
2023-02-14T07:04:30.364Z,99.90
2023-02-14T07:09:32.018Z,99.90
2023-02-14T07:14:33.693Z,99.90
2023-02-14T07:19:35.500Z,99.90
2023-02-14T07:24:37.185Z,99.90
2023-02-14T07:29:38.959Z,99.90
2023-02-14T07:34:40.767Z,99.90
2023-02-14T07:39:42.736Z,99.90
2023-02-14T07:44:46.211Z,99.90
2023-02-14T07:49:47.860Z,99.90
2023-02-14T07:54:49.601Z,99.90
2023-02-14T07:59:51.258Z,99.90
2023-02-14T08:04:53.028Z,99.90
2023-02-14T08:09:54.724Z,99.90
2023-02-14T08:15:16.417Z,99.90
2023-02-14T08:20:18.506Z,99.90
2023-02-14T08:25:20.202Z,99.90
2023-02-14T08:30:22.775Z,99.90
2023-02-14T08:35:26.085Z,99.90
2023-02-14T08:40:28.384Z,99.90
2023-02-14T08:45:30.192Z,99.90
2023-02-14T08:50:32.533Z,99.90
2023-02-14T08:55:35.623Z,99.90
2023-02-14T09:00:37.339Z,99.90
2023-02-14T09:05:39.099Z,99.90
2023-02-14T09:10:40.770Z,99.90
2023-02-14T09:15:42.464Z,99.90
2023-02-14T09:20:45.337Z,99.90
2023-02-14T09:25:47.016Z,99.90
2023-02-14T09:30:48.731Z,99.90
2023-02-14T09:36:09.106Z,99.90
2023-02-14T09:41:33.202Z,99.90
2023-02-14T09:46:42.883Z,99.90
2023-02-14T09:51:49.902Z,99.90
2023-02-14T09:56:59.663Z,99.90
2023-02-14T10:02:17.290Z,99.90
2023-02-14T10:07:37.682Z,99.90
2023-02-14T10:12:47.487Z,99.90
2023-02-14T10:18:02.767Z,99.90
2023-02-14T10:23:17.847Z,99.90
2023-02-14T10:28:33.983Z,99.90
2023-02-14T10:33:39.355Z,99.90
2023-02-14T10:38:47.342Z,99.90
2023-02-14T10:43:54.909Z,99.90
2023-02-14T10:49:41.680Z,99.90
2023-02-14T10:55:05.155Z,99.90
2023-02-14T11:00:28.222Z,99.90
2023-02-14T11:05:46.783Z,99.90
2023-02-14T11:10:48.943Z,99.90
2023-02-14T11:15:51.840Z,99.10
2023-02-14T11:21:24.262Z,98.80
2023-02-14T11:26:34.435Z,97.80
2023-02-14T11:31:38.496Z,97.40
2023-02-14T11:36:42.476Z,97.20
2023-02-14T11:41:56.243Z,95.50
2023-02-14T11:47:41.478Z,94.30
2023-02-14T11:52:51.987Z,92.50
2023-02-14T11:57:54.968Z,90.90
2023-02-14T12:02:59.050Z,90.50
2023-02-14T12:08:03.406Z,86.50
2023-02-14T12:13:07.824Z,81.40
2023-02-14T12:18:17.911Z,76.60
2023-02-14T12:23:32.926Z,73.80
2023-02-14T12:28:44.726Z,72.20
2023-02-14T12:33:48.393Z,67.90
2023-02-14T12:39:08.906Z,66.00
2023-02-14T12:44:30.068Z,61.90
2023-02-14T12:50:10.478Z,60.00
2023-02-14T12:55:28.492Z,58.60
2023-02-14T13:00:45.595Z,57.30
2023-02-14T13:05:47.199Z,58.40
2023-02-14T13:11:02.587Z,57.60
2023-02-14T13:16:16.144Z,57.60
2023-02-14T13:21:26.294Z,57.70
2023-02-14T13:26:35.514Z,58.20
2023-02-14T13:31:38.537Z,57.70
2023-02-14T13:36:41.091Z,57.70
2023-02-14T13:41:42.928Z,57.10
2023-02-14T13:46:49.374Z,57.80
2023-02-14T13:51:57.488Z,58.70
2023-02-14T13:57:01.777Z,61.20
2023-02-14T14:02:32.106Z,62.20
2023-02-14T14:07:33.769Z,61.90
2023-02-14T14:12:35.390Z,62.60
2023-02-14T14:17:46.409Z,63.60
2023-02-14T14:22:50.740Z,65.40
2023-02-14T14:27:53.529Z,67.20
2023-02-14T14:32:55.492Z,68.30
2023-02-14T14:37:58.949Z,67.40
2023-02-14T14:43:17.852Z,69.80
2023-02-14T14:48:35.383Z,71.10
2023-02-14T14:53:55.716Z,71.30
2023-02-14T14:58:57.971Z,73.50
2023-02-14T15:04:30.493Z,73.20
2023-02-14T15:09:33.720Z,73.80
2023-02-14T15:14:43.398Z,76.60
2023-02-14T15:19:50.904Z,78.40
2023-02-14T15:24:53.544Z,79.50
2023-02-14T15:29:55.369Z,80.80
2023-02-14T15:34:58.195Z,81.90
2023-02-14T15:40:00.642Z,83.00
2023-02-14T15:45:27.765Z,85.10
2023-02-14T15:50:35.466Z,87.90
2023-02-14T15:55:37.251Z,90.30
2023-02-14T16:00:39.062Z,91.80
2023-02-14T16:05:47.141Z,93.50
2023-02-14T16:11:13.468Z,95.10
2023-02-14T16:16:16.914Z,97.00
2023-02-14T16:21:31.294Z,98.50
2023-02-14T16:26:35.054Z,99.40
2023-02-14T16:31:51.915Z,99.90
2023-02-14T16:37:08.526Z,99.90
2023-02-14T16:42:16.904Z,99.90
2023-02-14T16:47:20.795Z,99.90
2023-02-14T16:52:26.158Z,99.90
2023-02-14T16:57:35.576Z,99.90
2023-02-14T17:02:37.636Z,99.90
2023-02-14T17:07:42.195Z,99.90
2023-02-14T17:12:47.083Z,99.90
2023-02-14T17:17:50.127Z,99.90
2023-02-14T17:22:51.896Z,99.90
2023-02-14T17:27:53.834Z,99.90
2023-02-14T17:32:55.659Z,99.90
2023-02-14T17:37:57.454Z,99.90
2023-02-14T17:43:00.424Z,99.90
2023-02-14T17:48:02.632Z,99.90
2023-02-14T17:53:04.289Z,99.90
2023-02-14T17:58:05.945Z,99.90
2023-02-14T18:03:07.719Z,99.90
2023-02-14T18:08:09.461Z,99.90
2023-02-14T18:13:11.140Z,99.90
2023-02-14T18:18:13.800Z,99.90
2023-02-14T18:23:15.467Z,99.90
2023-02-14T18:28:17.229Z,99.90
2023-02-14T18:33:19.398Z,99.90
2023-02-14T18:38:21.075Z,99.90
2023-02-14T18:43:22.857Z,99.90
2023-02-14T18:48:24.511Z,99.90
2023-02-14T18:53:26.441Z,99.90
2023-02-14T18:58:28.125Z,99.90
2023-02-14T19:03:29.809Z,99.90
2023-02-14T19:08:33.055Z,99.90
2023-02-14T19:13:34.715Z,99.90
2023-02-14T19:18:36.452Z,99.90
2023-02-14T19:23:38.524Z,99.90
2023-02-14T19:28:40.655Z,99.90
2023-02-14T19:33:44.684Z,99.90
2023-02-14T19:38:49.385Z,99.90
2023-02-14T19:43:52.564Z,99.90
2023-02-14T19:48:56.353Z,99.90
2023-02-14T19:54:00.566Z,99.90
2023-02-14T19:59:07.685Z,99.90
2023-02-14T20:04:13.709Z,99.90
2023-02-14T20:09:16.030Z,99.90
2023-02-14T20:14:19.993Z,99.90
2023-02-14T20:19:26.837Z,99.90
2023-02-14T20:24:31.169Z,99.90
2023-02-14T20:29:33.190Z,99.90
2023-02-14T20:34:35.306Z,99.90
2023-02-14T20:39:37.543Z,99.90
2023-02-14T20:44:39.248Z,99.90
2023-02-14T20:49:44.640Z,99.90
2023-02-14T20:54:46.523Z,99.90
2023-02-14T20:59:48.190Z,99.90
2023-02-14T21:04:49.829Z,99.90
2023-02-14T21:09:51.482Z,99.90
2023-02-14T21:14:53.490Z,99.90
2023-02-14T21:19:55.143Z,99.90
2023-02-14T21:24:56.867Z,99.90
2023-02-14T21:29:58.596Z,99.90
2023-02-14T21:35:00.289Z,99.90
2023-02-14T21:40:02.024Z,99.90
2023-02-14T21:45:22.575Z,99.90
2023-02-14T21:50:30.345Z,99.90
2023-02-14T21:55:32.133Z,99.90
2023-02-14T22:00:33.824Z,99.90
2023-02-14T22:05:35.524Z,99.90
2023-02-14T22:10:40.040Z,99.90
2023-02-14T22:15:41.727Z,99.90
2023-02-14T22:20:43.646Z,99.90
2023-02-14T22:25:45.312Z,99.90
2023-02-14T22:30:46.975Z,99.90
2023-02-14T22:35:48.709Z,99.90
2023-02-14T22:40:50.393Z,99.90
2023-02-14T22:45:52.074Z,99.90
2023-02-14T22:50:53.708Z,99.90
2023-02-14T22:55:55.355Z,99.90
2023-02-14T23:00:57.016Z,99.90
2023-02-14T23:05:59.397Z,99.90
2023-02-14T23:11:15.789Z,99.90
2023-02-14T23:16:35.950Z,99.90
2023-02-14T23:21:55.941Z,99.90
2023-02-14T23:26:57.707Z,99.90
2023-02-14T23:31:59.460Z,99.90
2023-02-14T23:37:01.527Z,99.90
2023-02-14T23:42:05.434Z,99.90
2023-02-14T23:47:08.740Z,99.90
2023-02-14T23:52:12.608Z,99.90
2023-02-14T23:57:14.376Z,99.90
